sensor_id;sensor_type;location;lat;lon;timestamp;pressure;altitude;pressure_sealevel;temperature;humidity
56719;BME280;42597;40.636;0.278;2022-08-19T00:02:07;97438.34;;;22.71;46.10
56719;BME280;42597;40.636;0.278;2022-08-19T00:04:34;97424.38;;;23.29;44.66
56719;BME280;42597;40.636;0.278;2022-08-19T00:07:03;97439.16;;;22.72;45.64
56719;BME280;42597;40.636;0.278;2022-08-19T00:09:29;97445.69;;;21.69;48.06
56719;BME280;42597;40.636;0.278;2022-08-19T00:11:55;97448.38;;;23.72;43.68
56719;BME280;42597;40.636;0.278;2022-08-19T00:14:22;97442.47;;;23.10;44.30
56719;BME280;42597;40.636;0.278;2022-08-19T00:16:49;97449.28;;;21.29;49.30
56719;BME280;42597;40.636;0.278;2022-08-19T00:19:16;97452.00;;;21.36;49.58
56719;BME280;42597;40.636;0.278;2022-08-19T00:21:42;97457.25;;;23.20;45.35
56719;BME280;42597;40.636;0.278;2022-08-19T00:24:10;97437.94;;;22.49;47.22
56719;BME280;42597;40.636;0.278;2022-08-19T00:26:37;97441.63;;;22.39;47.88
56719;BME280;42597;40.636;0.278;2022-08-19T00:29:04;97426.22;;;23.95;43.65
56719;BME280;42597;40.636;0.278;2022-08-19T00:31:29;97431.38;;;23.13;45.15
56719;BME280;42597;40.636;0.278;2022-08-19T00:33:56;97419.84;;;23.98;43.16
56719;BME280;42597;40.636;0.278;2022-08-19T00:36:22;97417.88;;;23.39;44.50
56719;BME280;42597;40.636;0.278;2022-08-19T00:38:48;97418.63;;;23.99;43.63
56719;BME280;42597;40.636;0.278;2022-08-19T00:41:16;97395.19;;;24.24;42.94
56719;BME280;42597;40.636;0.278;2022-08-19T00:44:05;97384.53;;;24.42;42.23
56719;BME280;42597;40.636;0.278;2022-08-19T00:46:32;97384.47;;;23.93;42.91
56719;BME280;42597;40.636;0.278;2022-08-19T00:49:00;97381.63;;;23.97;43.15
56719;BME280;42597;40.636;0.278;2022-08-19T00:51:30;97370.00;;;24.22;42.65
56719;BME280;42597;40.636;0.278;2022-08-19T00:53:58;97373.03;;;24.27;42.54
56719;BME280;42597;40.636;0.278;2022-08-19T00:56:26;97361.72;;;24.05;43.36
56719;BME280;42597;40.636;0.278;2022-08-19T00:58:55;97342.47;;;23.09;45.29
56719;BME280;42597;40.636;0.278;2022-08-19T01:01:22;97363.53;;;23.20;44.78
56719;BME280;42597;40.636;0.278;2022-08-19T01:03:47;97373.22;;;23.84;43.93
56719;BME280;42597;40.636;0.278;2022-08-19T01:06:13;97356.38;;;23.42;44.72
56719;BME280;42597;40.636;0.278;2022-08-19T01:08:39;97367.66;;;24.04;43.07
56719;BME280;42597;40.636;0.278;2022-08-19T01:11:06;97360.47;;;23.74;44.31
56719;BME280;42597;40.636;0.278;2022-08-19T01:13:33;97365.88;;;24.30;42.89
56719;BME280;42597;40.636;0.278;2022-08-19T01:16:06;97356.22;;;24.38;42.79
56719;BME280;42597;40.636;0.278;2022-08-19T01:18:36;97355.47;;;23.29;45.27
56719;BME280;42597;40.636;0.278;2022-08-19T01:21:15;97363.66;;;23.52;44.11
56719;BME280;42597;40.636;0.278;2022-08-19T01:23:43;97368.22;;;21.75;49.09
56719;BME280;42597;40.636;0.278;2022-08-19T01:26:18;97364.47;;;23.89;44.28
56719;BME280;42597;40.636;0.278;2022-08-19T01:28:47;97374.53;;;23.39;45.24
56719;BME280;42597;40.636;0.278;2022-08-19T01:31:18;97374.00;;;22.85;46.71
56719;BME280;42597;40.636;0.278;2022-08-19T01:33:47;97357.25;;;22.02;48.90
56719;BME280;42597;40.636;0.278;2022-08-19T01:36:34;97369.03;;;22.29;48.17
56719;BME280;42597;40.636;0.278;2022-08-19T01:39:05;97379.84;;;22.16;49.25
56719;BME280;42597;40.636;0.278;2022-08-19T01:41:32;97379.88;;;21.21;51.00
56719;BME280;42597;40.636;0.278;2022-08-19T01:43:58;97362.38;;;21.08;52.15
56719;BME280;42597;40.636;0.278;2022-08-19T01:46:23;97356.53;;;21.02;52.15
56719;BME280;42597;40.636;0.278;2022-08-19T01:48:50;97363.59;;;20.13;55.00
56719;BME280;42597;40.636;0.278;2022-08-19T01:51:15;97353.13;;;21.25;52.94
56719;BME280;42597;40.636;0.278;2022-08-19T01:53:41;97355.31;;;22.26;48.73
56719;BME280;42597;40.636;0.278;2022-08-19T01:56:07;97348.19;;;20.79;52.98
56719;BME280;42597;40.636;0.278;2022-08-19T01:58:38;97359.38;;;20.95;53.37
56719;BME280;42597;40.636;0.278;2022-08-19T02:01:07;97347.47;;;20.71;53.56
56719;BME280;42597;40.636;0.278;2022-08-19T02:03:33;97319.75;;;21.27;51.07
56719;BME280;42597;40.636;0.278;2022-08-19T02:06:01;97323.28;;;20.93;53.02
56719;BME280;42597;40.636;0.278;2022-08-19T02:08:28;97346.97;;;20.35;54.55
56719;BME280;42597;40.636;0.278;2022-08-19T02:10:55;97345.53;;;21.02;52.23
56719;BME280;42597;40.636;0.278;2022-08-19T02:13:20;97340.44;;;20.66;53.83
56719;BME280;42597;40.636;0.278;2022-08-19T02:15:46;97306.47;;;20.46;54.32
56719;BME280;42597;40.636;0.278;2022-08-19T02:18:12;97321.88;;;20.36;54.55
56719;BME280;42597;40.636;0.278;2022-08-19T02:20:39;97320.94;;;21.26;52.07
56719;BME280;42597;40.636;0.278;2022-08-19T02:23:05;97322.59;;;21.19;51.25
56719;BME280;42597;40.636;0.278;2022-08-19T02:25:31;97315.78;;;21.89;50.88
56719;BME280;42597;40.636;0.278;2022-08-19T02:27:57;97318.31;;;21.49;51.03
56719;BME280;42597;40.636;0.278;2022-08-19T02:30:22;97329.38;;;20.74;53.87
56719;BME280;42597;40.636;0.278;2022-08-19T02:32:49;97335.78;;;21.32;51.13
56719;BME280;42597;40.636;0.278;2022-08-19T02:35:16;97318.78;;;21.98;50.14
56719;BME280;42597;40.636;0.278;2022-08-19T02:37:43;97339.56;;;21.76;49.76
56719;BME280;42597;40.636;0.278;2022-08-19T02:40:28;97332.72;;;22.11;49.39
56719;BME280;42597;40.636;0.278;2022-08-19T02:42:54;97337.50;;;21.18;51.50
56719;BME280;42597;40.636;0.278;2022-08-19T02:45:20;97352.69;;;20.96;53.00
56719;BME280;42597;40.636;0.278;2022-08-19T02:47:46;97349.78;;;21.44;51.84
56719;BME280;42597;40.636;0.278;2022-08-19T02:50:11;97329.88;;;22.18;49.41
56719;BME280;42597;40.636;0.278;2022-08-19T02:52:38;97341.88;;;22.04;50.03
56719;BME280;42597;40.636;0.278;2022-08-19T02:55:04;97350.19;;;21.74;50.69
56719;BME280;42597;40.636;0.278;2022-08-19T02:57:30;97342.44;;;22.66;47.80
56719;BME280;42597;40.636;0.278;2022-08-19T02:59:57;97325.94;;;21.65;50.92
56719;BME280;42597;40.636;0.278;2022-08-19T03:02:22;97338.25;;;22.81;47.85
56719;BME280;42597;40.636;0.278;2022-08-19T03:04:48;97334.84;;;22.74;47.59
56719;BME280;42597;40.636;0.278;2022-08-19T03:07:15;97345.97;;;22.43;48.47
56719;BME280;42597;40.636;0.278;2022-08-19T03:09:41;97366.53;;;22.11;49.02
56719;BME280;42597;40.636;0.278;2022-08-19T03:12:08;97363.38;;;23.27;46.61
56719;BME280;42597;40.636;0.278;2022-08-19T03:14:34;97362.91;;;22.18;49.28
56719;BME280;42597;40.636;0.278;2022-08-19T03:17:00;97372.50;;;23.24;46.67
56719;BME280;42597;40.636;0.278;2022-08-19T03:19:26;97361.81;;;23.26;46.55
56719;BME280;42597;40.636;0.278;2022-08-19T03:21:53;97364.47;;;21.92;50.57
56719;BME280;42597;40.636;0.278;2022-08-19T03:24:19;97378.41;;;21.78;50.54
56719;BME280;42597;40.636;0.278;2022-08-19T03:26:50;97367.56;;;21.94;50.31
56719;BME280;42597;40.636;0.278;2022-08-19T03:29:17;97366.22;;;20.76;54.30
56719;BME280;42597;40.636;0.278;2022-08-19T03:31:44;97366.44;;;22.89;48.19
56719;BME280;42597;40.636;0.278;2022-08-19T03:34:12;97376.88;;;21.08;52.83
56719;BME280;42597;40.636;0.278;2022-08-19T03:36:39;97372.06;;;22.82;47.69
56719;BME280;42597;40.636;0.278;2022-08-19T03:39:04;97372.81;;;21.85;51.21
56719;BME280;42597;40.636;0.278;2022-08-19T03:41:36;97383.41;;;21.22;52.62
56719;BME280;42597;40.636;0.278;2022-08-19T03:44:03;97375.47;;;20.93;53.17
56719;BME280;42597;40.636;0.278;2022-08-19T03:46:32;97377.06;;;21.89;50.73
56719;BME280;42597;40.636;0.278;2022-08-19T03:49:00;97382.66;;;21.82;51.08
56719;BME280;42597;40.636;0.278;2022-08-19T03:51:36;97390.44;;;20.40;55.75
56719;BME280;42597;40.636;0.278;2022-08-19T03:54:07;97385.25;;;21.66;51.76
56719;BME280;42597;40.636;0.278;2022-08-19T03:56:37;97399.16;;;20.80;54.39
56719;BME280;42597;40.636;0.278;2022-08-19T03:59:07;97378.28;;;20.41;55.41
56719;BME280;42597;40.636;0.278;2022-08-19T04:01:34;97371.50;;;20.04;57.12
56719;BME280;42597;40.636;0.278;2022-08-19T04:04:01;97383.69;;;20.00;57.43
56719;BME280;42597;40.636;0.278;2022-08-19T04:06:32;97383.31;;;20.94;54.40
56719;BME280;42597;40.636;0.278;2022-08-19T04:08:59;97391.47;;;21.02;53.66
56719;BME280;42597;40.636;0.278;2022-08-19T04:11:39;97383.00;;;21.23;53.71
56719;BME280;42597;40.636;0.278;2022-08-19T04:14:08;97375.00;;;21.39;52.88
56719;BME280;42597;40.636;0.278;2022-08-19T04:16:34;97375.53;;;19.89;57.71
56719;BME280;42597;40.636;0.278;2022-08-19T04:19:02;97392.53;;;20.21;56.24
56719;BME280;42597;40.636;0.278;2022-08-19T04:21:28;97401.09;;;21.20;53.24
56719;BME280;42597;40.636;0.278;2022-08-19T04:23:55;97390.78;;;20.49;54.83
56719;BME280;42597;40.636;0.278;2022-08-19T04:26:25;97403.38;;;21.26;53.55
56719;BME280;42597;40.636;0.278;2022-08-19T04:28:52;97419.88;;;20.39;55.95
56719;BME280;42597;40.636;0.278;2022-08-19T04:31:21;97429.53;;;20.03;57.00
56719;BME280;42597;40.636;0.278;2022-08-19T04:33:47;97423.06;;;20.83;54.80
56719;BME280;42597;40.636;0.278;2022-08-19T04:36:26;97425.66;;;20.97;54.45
56719;BME280;42597;40.636;0.278;2022-08-19T04:38:57;97423.09;;;21.55;52.39
56719;BME280;42597;40.636;0.278;2022-08-19T04:41:24;97435.66;;;21.86;51.91
56719;BME280;42597;40.636;0.278;2022-08-19T04:44:09;97427.00;;;21.19;53.60
56719;BME280;42597;40.636;0.278;2022-08-19T04:46:35;97452.63;;;20.64;55.16
56719;BME280;42597;40.636;0.278;2022-08-19T04:49:03;97457.94;;;21.65;52.25
56719;BME280;42597;40.636;0.278;2022-08-19T04:51:30;97439.44;;;22.00;51.86
56719;BME280;42597;40.636;0.278;2022-08-19T04:53:56;97432.72;;;21.70;52.16
56719;BME280;42597;40.636;0.278;2022-08-19T04:56:22;97442.13;;;19.86;57.98
56719;BME280;42597;40.636;0.278;2022-08-19T04:58:52;97445.19;;;20.02;57.30
56719;BME280;42597;40.636;0.278;2022-08-19T05:01:22;97438.31;;;19.65;59.16
56719;BME280;42597;40.636;0.278;2022-08-19T05:03:48;97444.47;;;19.94;57.40
56719;BME280;42597;40.636;0.278;2022-08-19T05:06:16;97406.66;;;20.76;55.31
56719;BME280;42597;40.636;0.278;2022-08-19T05:08:43;97420.19;;;19.86;57.56
56719;BME280;42597;40.636;0.278;2022-08-19T05:13:43;97403.75;;;21.62;53.14
56719;BME280;42597;40.636;0.278;2022-08-19T05:16:11;97432.34;;;20.51;55.75
56719;BME280;42597;40.636;0.278;2022-08-19T05:18:37;97430.66;;;20.68;54.70
56719;BME280;42597;40.636;0.278;2022-08-19T05:21:22;97425.50;;;22.10;50.72
56719;BME280;42597;40.636;0.278;2022-08-19T05:24:07;97415.41;;;22.31;50.14
56719;BME280;42597;40.636;0.278;2022-08-19T05:26:45;97422.34;;;22.39;49.63
56719;BME280;42597;40.636;0.278;2022-08-19T05:29:17;97412.34;;;22.76;48.83
56719;BME280;42597;40.636;0.278;2022-08-19T05:31:44;97432.00;;;21.32;52.00
56719;BME280;42597;40.636;0.278;2022-08-19T05:34:11;97445.34;;;21.98;50.46
56719;BME280;42597;40.636;0.278;2022-08-19T05:36:40;97437.31;;;22.88;48.40
56719;BME280;42597;40.636;0.278;2022-08-19T05:39:07;97441.41;;;21.68;51.16
56719;BME280;42597;40.636;0.278;2022-08-19T05:41:33;97439.00;;;21.40;51.94
56719;BME280;42597;40.636;0.278;2022-08-19T05:44:04;97437.84;;;22.56;49.06
56719;BME280;42597;40.636;0.278;2022-08-19T05:46:32;97443.78;;;21.29;52.94
56719;BME280;42597;40.636;0.278;2022-08-19T05:48:58;97446.78;;;23.31;47.66
56719;BME280;42597;40.636;0.278;2022-08-19T05:51:24;97459.91;;;21.64;51.93
56719;BME280;42597;40.636;0.278;2022-08-19T05:53:51;97456.00;;;21.24;52.84
56719;BME280;42597;40.636;0.278;2022-08-19T05:56:17;97470.03;;;21.37;52.82
56719;BME280;42597;40.636;0.278;2022-08-19T05:58:44;97467.00;;;21.96;50.61
56719;BME280;42597;40.636;0.278;2022-08-19T06:01:16;97464.31;;;22.23;50.32
56719;BME280;42597;40.636;0.278;2022-08-19T06:03:41;97466.34;;;21.85;51.55
56719;BME280;42597;40.636;0.278;2022-08-19T06:06:09;97479.13;;;21.99;50.99
56719;BME280;42597;40.636;0.278;2022-08-19T06:08:35;97450.44;;;22.00;51.36
56719;BME280;42597;40.636;0.278;2022-08-19T06:11:23;97471.13;;;22.38;49.50
56719;BME280;42597;40.636;0.278;2022-08-19T06:13:51;97468.56;;;22.51;49.39
56719;BME280;42597;40.636;0.278;2022-08-19T06:16:21;97472.03;;;22.32;49.75
56719;BME280;42597;40.636;0.278;2022-08-19T06:19:00;97474.22;;;22.44;49.09
56719;BME280;42597;40.636;0.278;2022-08-19T06:21:28;97479.78;;;21.45;52.35
56719;BME280;42597;40.636;0.278;2022-08-19T06:23:55;97489.16;;;21.82;51.40
56719;BME280;42597;40.636;0.278;2022-08-19T06:26:22;97482.38;;;22.75;48.95
56719;BME280;42597;40.636;0.278;2022-08-19T06:28:48;97502.31;;;23.09;47.90
56719;BME280;42597;40.636;0.278;2022-08-19T06:31:16;97502.25;;;22.62;48.60
56719;BME280;42597;40.636;0.278;2022-08-19T06:33:43;97498.09;;;22.24;49.97
56719;BME280;42597;40.636;0.278;2022-08-19T06:38:49;97500.06;;;22.50;49.36
56719;BME280;42597;40.636;0.278;2022-08-19T06:41:15;97502.53;;;22.45;49.17
56719;BME280;42597;40.636;0.278;2022-08-19T06:43:41;97505.19;;;23.26;47.24
56719;BME280;42597;40.636;0.278;2022-08-19T06:46:13;97506.16;;;22.65;48.23
56719;BME280;42597;40.636;0.278;2022-08-19T06:48:40;97517.16;;;21.39;51.63
56719;BME280;42597;40.636;0.278;2022-08-19T06:51:06;97509.34;;;22.63;48.92
56719;BME280;42597;40.636;0.278;2022-08-19T06:53:32;97512.56;;;21.97;50.27
56719;BME280;42597;40.636;0.278;2022-08-19T06:55:58;97506.66;;;21.64;51.08
56719;BME280;42597;40.636;0.278;2022-08-19T06:58:29;97501.31;;;22.18;49.81
56719;BME280;42597;40.636;0.278;2022-08-19T07:01:02;97506.59;;;22.87;47.66
56719;BME280;42597;40.636;0.278;2022-08-19T07:03:33;97502.88;;;22.74;47.50
56719;BME280;42597;40.636;0.278;2022-08-19T07:06:04;97504.44;;;22.21;49.05
56719;BME280;42597;40.636;0.278;2022-08-19T07:08:30;97510.38;;;23.44;46.28
56719;BME280;42597;40.636;0.278;2022-08-19T07:10:57;97526.88;;;22.46;48.13
56719;BME280;42597;40.636;0.278;2022-08-19T07:13:23;97508.28;;;22.81;47.83
56719;BME280;42597;40.636;0.278;2022-08-19T07:15:49;97508.34;;;22.50;48.45
56719;BME280;42597;40.636;0.278;2022-08-19T07:18:17;97502.50;;;22.99;47.22
56719;BME280;42597;40.636;0.278;2022-08-19T07:20:43;97495.03;;;22.45;47.99
56719;BME280;42597;40.636;0.278;2022-08-19T07:23:09;97498.00;;;23.08;47.30
56719;BME280;42597;40.636;0.278;2022-08-19T07:25:36;97495.38;;;22.47;47.58
56719;BME280;42597;40.636;0.278;2022-08-19T07:28:02;97490.06;;;23.34;46.40
56719;BME280;42597;40.636;0.278;2022-08-19T07:30:28;97492.41;;;22.88;47.20
56719;BME280;42597;40.636;0.278;2022-08-19T07:32:54;97491.41;;;23.02;47.14
56719;BME280;42597;40.636;0.278;2022-08-19T07:35:19;97504.94;;;23.40;45.65
56719;BME280;42597;40.636;0.278;2022-08-19T07:37:46;97497.25;;;23.71;45.23
56719;BME280;42597;40.636;0.278;2022-08-19T07:40:12;97498.13;;;23.88;44.70
56719;BME280;42597;40.636;0.278;2022-08-19T07:42:38;97510.91;;;23.98;44.22
56719;BME280;42597;40.636;0.278;2022-08-19T07:45:05;97509.84;;;24.12;44.20
56719;BME280;42597;40.636;0.278;2022-08-19T07:47:31;97498.91;;;24.08;44.04
56719;BME280;42597;40.636;0.278;2022-08-19T07:49:56;97505.41;;;23.98;44.19
56719;BME280;42597;40.636;0.278;2022-08-19T07:52:22;97515.47;;;24.08;43.57
56719;BME280;42597;40.636;0.278;2022-08-19T07:54:48;97513.03;;;24.10;43.82
56719;BME280;42597;40.636;0.278;2022-08-19T07:57:15;97513.88;;;24.07;43.20
56719;BME280;42597;40.636;0.278;2022-08-19T07:59:41;97521.88;;;24.22;43.52
56719;BME280;42597;40.636;0.278;2022-08-19T08:02:08;97524.13;;;24.47;43.16
56719;BME280;42597;40.636;0.278;2022-08-19T08:04:34;97512.31;;;24.06;43.83
56719;BME280;42597;40.636;0.278;2022-08-19T08:07:18;97515.88;;;23.87;44.39
56719;BME280;42597;40.636;0.278;2022-08-19T08:10:05;97516.31;;;24.05;43.56
56719;BME280;42597;40.636;0.278;2022-08-19T08:12:36;97516.22;;;24.09;43.76
56719;BME280;42597;40.636;0.278;2022-08-19T08:15:13;97515.03;;;23.90;44.17
56719;BME280;42597;40.636;0.278;2022-08-19T08:17:42;97510.22;;;23.94;43.70
56719;BME280;42597;40.636;0.278;2022-08-19T08:20:09;97522.69;;;23.59;44.50
56719;BME280;42597;40.636;0.278;2022-08-19T08:22:35;97515.75;;;23.94;43.95
56719;BME280;42597;40.636;0.278;2022-08-19T08:25:21;97511.91;;;24.08;43.48
56719;BME280;42597;40.636;0.278;2022-08-19T08:27:49;97518.91;;;24.12;43.82
56719;BME280;42597;40.636;0.278;2022-08-19T08:30:23;97512.59;;;24.12;43.37
56719;BME280;42597;40.636;0.278;2022-08-19T08:32:49;97509.56;;;24.06;43.54
56719;BME280;42597;40.636;0.278;2022-08-19T08:35:18;97518.25;;;24.45;42.76
56719;BME280;42597;40.636;0.278;2022-08-19T08:37:45;97509.88;;;24.48;42.73
56719;BME280;42597;40.636;0.278;2022-08-19T08:40:28;97527.94;;;24.53;42.61
56719;BME280;42597;40.636;0.278;2022-08-19T08:43:07;97519.47;;;24.60;42.70
56719;BME280;42597;40.636;0.278;2022-08-19T08:45:36;97518.16;;;24.48;42.60
56719;BME280;42597;40.636;0.278;2022-08-19T08:48:19;97520.28;;;24.77;42.58
56719;BME280;42597;40.636;0.278;2022-08-19T08:50:47;97522.28;;;24.93;41.63
56719;BME280;42597;40.636;0.278;2022-08-19T08:53:19;97527.69;;;24.96;42.00
56719;BME280;42597;40.636;0.278;2022-08-19T08:55:46;97530.28;;;24.87;41.69
56719;BME280;42597;40.636;0.278;2022-08-19T08:58:29;97529.06;;;24.72;41.70
56719;BME280;42597;40.636;0.278;2022-08-19T09:00:57;97538.06;;;24.92;40.79
56719;BME280;42597;40.636;0.278;2022-08-19T09:03:26;97530.13;;;24.94;41.10
56719;BME280;42597;40.636;0.278;2022-08-19T09:06:02;97533.44;;;25.22;41.08
56719;BME280;42597;40.636;0.278;2022-08-19T09:11:48;97533.75;;;25.24;40.01
56719;BME280;42597;40.636;0.278;2022-08-19T09:14:42;97537.72;;;25.39;39.90
56719;BME280;42597;40.636;0.278;2022-08-19T09:17:12;97529.97;;;25.34;40.60
56719;BME280;42597;40.636;0.278;2022-08-19T09:19:53;97531.88;;;25.21;39.73
56719;BME280;42597;40.636;0.278;2022-08-19T09:22:20;97533.28;;;25.58;39.94
56719;BME280;42597;40.636;0.278;2022-08-19T09:24:49;97544.44;;;25.54;39.48
56719;BME280;42597;40.636;0.278;2022-08-19T09:27:17;97544.44;;;25.54;39.51
56719;BME280;42597;40.636;0.278;2022-08-19T09:29:43;97548.22;;;25.60;39.17
56719;BME280;42597;40.636;0.278;2022-08-19T09:32:09;97541.78;;;25.34;40.01
56719;BME280;42597;40.636;0.278;2022-08-19T09:34:35;97542.00;;;25.56;38.86
56719;BME280;42597;40.636;0.278;2022-08-19T09:37:01;97544.72;;;25.73;39.14
56719;BME280;42597;40.636;0.278;2022-08-19T09:39:28;97544.72;;;25.73;38.65
56719;BME280;42597;40.636;0.278;2022-08-19T09:41:53;97543.47;;;25.77;38.73
56719;BME280;42597;40.636;0.278;2022-08-19T09:44:19;97551.47;;;25.88;38.29
56719;BME280;42597;40.636;0.278;2022-08-19T09:46:48;97548.13;;;26.22;37.60
56719;BME280;42597;40.636;0.278;2022-08-19T09:49:15;97553.97;;;26.12;38.31
56719;BME280;42597;40.636;0.278;2022-08-19T09:51:42;97555.81;;;25.89;38.04
56719;BME280;42597;40.636;0.278;2022-08-19T09:54:08;97559.03;;;26.00;38.22
56719;BME280;42597;40.636;0.278;2022-08-19T09:56:34;97557.09;;;26.14;37.30
56719;BME280;42597;40.636;0.278;2022-08-19T09:59:00;97553.75;;;26.06;38.06
56719;BME280;42597;40.636;0.278;2022-08-19T10:01:29;97561.34;;;26.31;37.13
56719;BME280;42597;40.636;0.278;2022-08-19T10:03:57;97557.53;;;26.25;36.70
56719;BME280;42597;40.636;0.278;2022-08-19T10:06:25;97553.09;;;26.15;37.40
56719;BME280;42597;40.636;0.278;2022-08-19T10:08:55;97551.25;;;26.37;35.68
56719;BME280;42597;40.636;0.278;2022-08-19T10:11:21;97548.91;;;25.65;39.46
56719;BME280;42597;40.636;0.278;2022-08-19T10:13:47;97549.84;;;26.45;36.28
56719;BME280;42597;40.636;0.278;2022-08-19T10:16:16;97550.59;;;25.91;38.54
56719;BME280;42597;40.636;0.278;2022-08-19T10:18:43;97549.00;;;26.74;36.01
56719;BME280;42597;40.636;0.278;2022-08-19T10:23:44;97545.03;;;26.33;37.22
56719;BME280;42597;40.636;0.278;2022-08-19T10:26:12;97546.50;;;25.67;39.24
56719;BME280;42597;40.636;0.278;2022-08-19T10:28:39;97539.22;;;26.02;38.57
56719;BME280;42597;40.636;0.278;2022-08-19T10:31:12;97531.75;;;25.86;38.29
56719;BME280;42597;40.636;0.278;2022-08-19T10:33:39;97529.44;;;27.16;35.78
56719;BME280;42597;40.636;0.278;2022-08-19T10:36:08;97536.03;;;26.29;37.03
56719;BME280;42597;40.636;0.278;2022-08-19T10:38:35;97538.72;;;25.78;38.25
56719;BME280;42597;40.636;0.278;2022-08-19T10:41:18;97538.00;;;26.70;36.40
56719;BME280;42597;40.636;0.278;2022-08-19T10:43:46;97530.78;;;26.98;35.81
56719;BME280;42597;40.636;0.278;2022-08-19T10:46:14;97542.50;;;27.28;35.10
56719;BME280;42597;40.636;0.278;2022-08-19T10:48:41;97530.09;;;27.20;34.26
56719;BME280;42597;40.636;0.278;2022-08-19T10:51:08;97531.78;;;26.92;35.22
56719;BME280;42597;40.636;0.278;2022-08-19T10:53:54;97522.16;;;26.71;36.03
56719;BME280;42597;40.636;0.278;2022-08-19T10:56:20;97524.16;;;27.43;34.08
56719;BME280;42597;40.636;0.278;2022-08-19T10:59:05;97531.50;;;27.72;33.05
56719;BME280;42597;40.636;0.278;2022-08-19T11:01:33;97538.75;;;26.45;35.87
56719;BME280;42597;40.636;0.278;2022-08-19T11:04:00;97540.03;;;27.77;32.83
56719;BME280;42597;40.636;0.278;2022-08-19T11:06:27;97540.31;;;27.92;33.00
56719;BME280;42597;40.636;0.278;2022-08-19T11:08:53;97535.97;;;27.09;32.82
56719;BME280;42597;40.636;0.278;2022-08-19T11:11:20;97529.38;;;27.41;31.90
56719;BME280;42597;40.636;0.278;2022-08-19T11:13:47;97522.94;;;27.44;32.06
56719;BME280;42597;40.636;0.278;2022-08-19T11:16:21;97524.56;;;27.20;31.93
56719;BME280;42597;40.636;0.278;2022-08-19T11:18:49;97522.50;;;27.46;31.88
56719;BME280;42597;40.636;0.278;2022-08-19T11:21:18;97517.88;;;27.30;32.25
56719;BME280;42597;40.636;0.278;2022-08-19T11:23:45;97518.50;;;27.69;32.52
56719;BME280;42597;40.636;0.278;2022-08-19T11:26:12;97514.19;;;28.12;31.65
56719;BME280;42597;40.636;0.278;2022-08-19T11:28:39;97506.47;;;27.85;32.92
56719;BME280;42597;40.636;0.278;2022-08-19T11:31:10;97512.41;;;28.49;30.96
56719;BME280;42597;40.636;0.278;2022-08-19T11:33:36;97506.09;;;28.58;31.09
56719;BME280;42597;40.636;0.278;2022-08-19T11:36:02;97507.38;;;28.35;31.18
56719;BME280;42597;40.636;0.278;2022-08-19T11:38:28;97500.22;;;27.59;32.11
56719;BME280;42597;40.636;0.278;2022-08-19T11:40:59;97494.72;;;28.02;31.39
56719;BME280;42597;40.636;0.278;2022-08-19T11:43:26;97497.47;;;28.02;30.95
56719;BME280;42597;40.636;0.278;2022-08-19T11:45:53;97494.50;;;27.97;31.96
56719;BME280;42597;40.636;0.278;2022-08-19T11:48:19;97487.72;;;28.29;31.56
56719;BME280;42597;40.636;0.278;2022-08-19T11:50:49;97491.03;;;28.37;31.62
56719;BME280;42597;40.636;0.278;2022-08-19T11:53:16;97486.78;;;28.23;31.16
56719;BME280;42597;40.636;0.278;2022-08-19T11:55:43;97489.50;;;28.14;31.38
56719;BME280;42597;40.636;0.278;2022-08-19T11:58:11;97484.44;;;28.21;31.53
56719;BME280;42597;40.636;0.278;2022-08-19T12:00:38;97483.16;;;27.13;34.29
56719;BME280;42597;40.636;0.278;2022-08-19T12:03:04;97490.06;;;27.99;31.58
56719;BME280;42597;40.636;0.278;2022-08-19T12:05:30;97482.91;;;28.42;31.02
56719;BME280;42597;40.636;0.278;2022-08-19T12:07:55;97481.41;;;28.60;30.79
56719;BME280;42597;40.636;0.278;2022-08-19T12:10:22;97485.84;;;28.48;31.30
56719;BME280;42597;40.636;0.278;2022-08-19T12:12:48;97478.28;;;27.51;33.87
56719;BME280;42597;40.636;0.278;2022-08-19T12:15:14;97479.00;;;26.31;37.27
56719;BME280;42597;40.636;0.278;2022-08-19T12:17:40;97475.34;;;28.21;35.59
56719;BME280;42597;40.636;0.278;2022-08-19T12:20:09;97476.06;;;28.12;35.65
56719;BME280;42597;40.636;0.278;2022-08-19T12:22:37;97478.22;;;27.64;38.13
56719;BME280;42597;40.636;0.278;2022-08-19T12:25:04;97475.25;;;28.02;37.61
56719;BME280;42597;40.636;0.278;2022-08-19T12:27:30;97487.50;;;28.36;36.84
56719;BME280;42597;40.636;0.278;2022-08-19T12:29:56;97482.19;;;27.76;37.38
56719;BME280;42597;40.636;0.278;2022-08-19T12:32:23;97478.94;;;27.99;36.82
56719;BME280;42597;40.636;0.278;2022-08-19T12:34:50;97474.75;;;27.95;36.85
56719;BME280;42597;40.636;0.278;2022-08-19T12:37:16;97481.38;;;28.19;36.01
56719;BME280;42597;40.636;0.278;2022-08-19T12:39:42;97479.16;;;27.48;37.20
56719;BME280;42597;40.636;0.278;2022-08-19T12:42:10;97479.19;;;27.70;38.30
56719;BME280;42597;40.636;0.278;2022-08-19T12:44:38;97482.19;;;27.06;40.53
56719;BME280;42597;40.636;0.278;2022-08-19T12:47:05;97486.63;;;27.73;38.77
56719;BME280;42597;40.636;0.278;2022-08-19T12:49:32;97487.63;;;27.45;38.51
56719;BME280;42597;40.636;0.278;2022-08-19T12:52:06;97479.97;;;27.71;38.34
56719;BME280;42597;40.636;0.278;2022-08-19T12:54:34;97473.34;;;27.34;38.40
56719;BME280;42597;40.636;0.278;2022-08-19T12:57:00;97476.38;;;27.83;38.77
56719;BME280;42597;40.636;0.278;2022-08-19T12:59:26;97480.72;;;27.49;39.69
56719;BME280;42597;40.636;0.278;2022-08-19T13:01:52;97476.38;;;27.83;39.07
56719;BME280;42597;40.636;0.278;2022-08-19T13:04:18;97478.53;;;27.44;39.62
56719;BME280;42597;40.636;0.278;2022-08-19T13:06:44;97479.53;;;27.38;39.68
56719;BME280;42597;40.636;0.278;2022-08-19T13:09:10;97480.69;;;27.84;39.16
56719;BME280;42597;40.636;0.278;2022-08-19T13:11:36;97475.25;;;28.02;38.93
56719;BME280;42597;40.636;0.278;2022-08-19T13:14:03;97494.34;;;27.56;39.45
56719;BME280;42597;40.636;0.278;2022-08-19T13:16:29;97483.81;;;27.51;40.03
56719;BME280;42597;40.636;0.278;2022-08-19T13:18:56;97475.72;;;27.79;40.36